< < Back
Terminal Aerodrome Forecast


Current Version              Previous Versions:   1  2  3  4  5  6  7  8  9  

Terminal Aerodrome Forecast

005
FTUS42 KJAX 031328 AAB
TAFGNV
TAF AMD
KGNV 031328Z 0313/0412 11004KT 2SM BR OVC002
     FM031330 11003KT 4SM BR OVC010
     FM031430 12007KT P6SM BKN030
     FM031530 14008KT P6SM SCT035
     FM040000 14005KT P6SM SCT035 BKN250
     FM040600 17004KT 3SM BR SCT003=

Latest METAR

469
SAUS70 KWBC 032000 RRB
MTRGNV
METAR KGNV 031953Z 13008KT 10SM FEW055 28/17 A3013 RMK AO2 SLP200
T02830167


USA.gov is the U.S. government's official web portal to all federal, state and local government web resources and services.